Time;durP1;ratioP1;P1;durP2;ratioP2;P2;SDS_P1;SDS_P2;PMS_P1;PMS_P2;Temp;Humidity;BMP_temperature;BMP_pressure;BME280_temperature;BME280_humidity;BME280_pressure;Samples;Min_cycle;Max_cycle;Signal;HPM_P1;HPM_P2
2022/09/17 00:02:06;;;;;;;4.70;1.58;;;;;;;10.10;89.19;98425.00;10655255;27;20390;-70
2022/09/17 00:07:08;;;;;;;1.95;1.40;;;;;;;10.09;89.55;98421.47;10655467;27;20050;-70
2022/09/17 00:12:11;;;;;;;1.67;1.08;;;;;;;10.03;90.02;98422.78;10654677;27;20047;-70
2022/09/17 00:17:14;;;;;;;1.25;1.15;;;;;;;10.02;89.30;98418.44;10654356;27;20035;-69
2022/09/17 00:22:16;;;;;;;2.53;1.35;;;;;;;9.96;90.28;98411.56;10631595;27;20546;-70
2022/09/17 00:27:19;;;;;;;2.80;1.25;;;;;;;10.12;89.89;98420.00;10652120;27;20043;-70
2022/09/17 00:32:22;;;;;;;1.20;1.00;;;;;;;10.07;89.45;98418.25;10653488;27;20070;-69
2022/09/17 00:37:24;;;;;;;1.25;1.10;;;;;;;10.04;89.68;98410.69;10648437;27;20046;-70
2022/09/17 00:42:27;;;;;;;1.23;1.02;;;;;;;10.01;89.44;98414.09;10654982;27;20043;-69
2022/09/17 00:47:36;;;;;;;1.48;1.27;;;;;;;9.93;90.23;98415.75;10650883;27;20035;-69
2022/09/17 00:52:43;;;;;;;1.75;1.00;;;;;;;9.86;90.27;98412.72;10650307;27;20043;-69
2022/09/17 00:57:45;;;;;;;1.52;1.00;;;;;;;9.89;90.42;98412.09;10653843;27;20054;-69
2022/09/17 01:02:48;;;;;;;2.60;1.00;;;;;;;9.87;90.19;98411.59;10653360;27;20046;-69
2022/09/17 01:08:09;;;;;;;2.33;1.20;;;;;;;9.89;89.97;98405.78;10652703;27;20043;-70
2022/09/17 01:13:39;;;;;;;2.58;1.30;;;;;;;9.91;89.92;98404.34;10653826;27;20039;-69
2022/09/17 01:19:11;;;;;;;1.42;1.33;;;;;;;9.85;90.71;98399.34;10653237;27;20027;-69
2022/09/17 01:24:54;;;;;;;1.42;1.20;;;;;;;9.77;90.20;98392.00;10633630;27;20101;-69
2022/09/17 01:30:21;;;;;;;1.98;1.20;;;;;;;9.73;90.64;98397.34;10651759;27;20031;-69
2022/09/17 01:35:31;;;;;;;1.92;1.45;;;;;;;9.73;90.14;98402.03;10650822;27;20046;-69
2022/09/17 01:41:05;;;;;;;2.90;1.42;;;;;;;9.73;90.32;98393.81;10652356;27;20051;-69
2022/09/17 01:46:21;;;;;;;2.65;1.33;;;;;;;9.67;91.01;98393.97;10622351;27;20047;-69
2022/09/17 01:51:25;;;;;;;1.60;1.50;;;;;;;9.59;91.09;98396.78;10638004;27;20070;-69
2022/09/17 01:56:32;;;;;;;3.40;1.45;;;;;;;9.42;90.44;98391.38;10633572;27;20039;-69
2022/09/17 02:01:37;;;;;;;3.28;1.52;;;;;;;9.39;90.83;98387.34;10650254;27;20038;-69
2022/09/17 02:06:42;;;;;;;2.45;1.70;;;;;;;9.36;91.05;98386.06;10614993;27;20114;-69
2022/09/17 02:11:51;;;;;;;1.90;1.65;;;;;;;9.22;91.57;98381.94;10630419;27;20051;-69
2022/09/17 02:17:02;;;;;;;1.92;1.60;;;;;;;9.18;91.08;98384.50;10630808;27;20039;-69
2022/09/17 02:22:24;;;;;;;2.42;1.90;;;;;;;9.07;91.56;98372.34;10632910;27;20027;-69
2022/09/17 02:27:55;;;;;;;2.45;1.80;;;;;;;9.15;91.71;98376.97;10647058;28;20039;-69
2022/09/17 02:32:59;;;;;;;3.08;2.00;;;;;;;9.14;92.38;98372.63;10639174;28;20517;-69
2022/09/17 02:38:01;;;;;;;4.15;2.03;;;;;;;9.13;92.33;98387.44;10633513;28;20046;-69
2022/09/17 02:43:15;;;;;;;2.75;1.60;;;;;;;9.20;92.59;98376.81;10649489;28;20062;-69
2022/09/17 02:48:49;;;;;;;2.13;1.80;;;;;;;9.22;92.72;98365.53;10634099;28;20047;-69
2022/09/17 02:54:12;;;;;;;2.58;2.03;;;;;;;9.30;92.63;98376.44;10648866;28;20051;-69
2022/09/17 02:59:24;;;;;;;3.63;2.00;;;;;;;9.30;93.18;98365.47;10648820;28;20050;-69
2022/09/17 03:04:28;;;;;;;2.78;1.90;;;;;;;9.23;93.40;98367.94;10632566;27;20033;-69
2022/09/17 03:09:30;;;;;;;3.10;1.80;;;;;;;9.19;93.83;98377.09;10640669;27;20031;-69
2022/09/17 03:14:33;;;;;;;2.42;2.00;;;;;;;9.15;93.69;98362.47;10655999;27;20043;-69
2022/09/17 03:19:35;;;;;;;2.72;2.03;;;;;;;9.18;93.31;98375.50;10656920;27;20046;-69
2022/09/17 03:24:37;;;;;;;3.17;1.83;;;;;;;9.12;93.66;98369.41;10657287;27;20046;-69
2022/09/17 03:29:39;;;;;;;3.42;1.83;;;;;;;9.19;93.46;98375.16;10657387;27;20055;-69
2022/09/17 03:34:42;;;;;;;2.00;1.48;;;;;;;9.14;93.69;98375.34;10659096;27;20394;-69
2022/09/17 03:39:45;;;;;;;2.58;1.58;;;;;;;9.15;93.83;98376.16;10655192;27;20047;-69
2022/09/17 03:44:48;;;;;;;2.08;1.50;;;;;;;9.28;94.45;98365.00;10655105;27;20058;-69
2022/09/17 03:49:51;;;;;;;1.60;1.50;;;;;;;9.39;94.38;98359.19;10654886;27;22153;-69
2022/09/17 03:54:54;;;;;;;3.08;1.55;;;;;;;9.33;94.55;98362.09;10655226;27;20043;-69
2022/09/17 03:59:57;;;;;;;1.55;1.30;;;;;;;9.28;94.57;98356.81;10653823;27;20046;-69
2022/09/17 04:04:59;;;;;;;1.98;1.50;;;;;;;9.25;95.06;98352.00;10654942;27;20532;-69
2022/09/17 04:10:01;;;;;;;1.98;1.30;;;;;;;9.33;94.22;98351.13;10647109;27;20042;-69
2022/09/17 04:15:04;;;;;;;3.25;1.45;;;;;;;9.39;94.45;98348.25;10652860;27;20035;-69
2022/09/17 04:20:07;;;;;;;1.67;1.55;;;;;;;9.46;94.15;98348.50;10655283;27;20076;-69
2022/09/17 04:25:10;;;;;;;1.30;1.20;;;;;;;9.55;94.71;98341.88;10648805;27;20523;-69
2022/09/17 04:30:13;;;;;;;1.75;1.13;;;;;;;9.66;94.37;98343.09;10652754;27;20050;-69
2022/09/17 04:35:15;;;;;;;2.38;1.85;;;;;;;9.71;94.20;98344.81;10668216;27;20047;-69
2022/09/17 04:40:18;;;;;;;3.33;1.60;;;;;;;9.72;94.03;98340.97;10635846;27;20035;-69
2022/09/17 04:45:20;;;;;;;3.42;1.15;;;;;;;9.75;93.40;98345.78;10665310;27;20058;-69
2022/09/17 04:50:23;;;;;;;1.70;1.30;;;;;;;9.78;93.47;98349.78;10650590;27;20409;-69
2022/09/17 04:55:26;;;;;;;3.55;1.88;;;;;;;9.76;93.46;98350.13;10650956;27;20031;-70
2022/09/17 05:00:28;;;;;;;1.73;1.40;;;;;;;9.77;94.13;98351.72;10651590;27;20031;-70
2022/09/17 05:05:30;;;;;;;1.60;1.50;;;;;;;9.68;94.17;98351.75;10650757;27;20428;-68
2022/09/17 05:10:32;;;;;;;1.75;1.45;;;;;;;9.65;93.96;98348.88;10653148;27;20039;-68
2022/09/17 05:15:34;;;;;;;3.58;1.70;;;;;;;9.69;94.17;98344.34;10651266;27;20416;-69
2022/09/17 05:20:37;;;;;;;2.35;1.70;;;;;;;9.70;93.84;98345.94;10650958;27;20051;-69
2022/09/17 05:25:39;;;;;;;1.67;1.30;;;;;;;9.73;94.19;98345.31;10649280;27;20049;-69
2022/09/17 05:30:41;;;;;;;1.60;1.30;;;;;;;9.73;94.06;98339.84;10613811;27;20051;-70
2022/09/17 05:35:44;;;;;;;3.00;1.80;;;;;;;9.93;93.81;98341.78;10649901;27;20558;-69
2022/09/17 05:40:47;;;;;;;1.67;1.33;;;;;;;10.11;94.44;98338.94;10649144;27;20055;-69
2022/09/17 05:45:50;;;;;;;1.65;1.20;;;;;;;10.17;93.71;98340.31;10634472;27;20047;-69
2022/09/17 05:50:54;;;;;;;2.40;1.48;;;;;;;10.18;93.57;98339.97;10652560;27;20058;-70
2022/09/17 05:55:57;;;;;;;2.42;1.40;;;;;;;10.13;93.61;98342.13;10651756;27;20417;-69
2022/09/17 06:01:00;;;;;;;3.05;1.55;;;;;;;10.10;93.40;98340.06;10633601;27;20070;-69
2022/09/17 06:06:02;;;;;;;1.40;1.30;;;;;;;10.07;92.75;98340.75;10651165;27;20441;-69
2022/09/17 06:11:05;;;;;;;1.63;1.52;;;;;;;10.18;92.92;98337.25;10651866;27;20415;-69
2022/09/17 06:16:07;;;;;;;2.75;1.17;;;;;;;10.21;93.30;98338.53;10635758;27;20050;-70
2022/09/17 06:21:09;;;;;;;4.75;1.52;;;;;;;10.25;92.93;98345.78;10634947;27;20052;-71
2022/09/17 06:26:11;;;;;;;2.00;1.40;;;;;;;10.31;92.84;98338.16;10629773;27;20039;-70
2022/09/17 06:31:13;;;;;;;2.58;1.40;;;;;;;10.32;92.46;98342.50;10624264;27;20967;-70
2022/09/17 06:36:15;;;;;;;2.15;1.27;;;;;;;10.42;92.17;98350.31;10625806;27;20035;-70
2022/09/17 06:41:18;;;;;;;1.15;1.05;;;;;;;10.45;91.95;98346.91;10634078;27;20698;-68
2022/09/17 06:46:20;;;;;;;1.30;1.20;;;;;;;10.47;91.85;98347.34;10631305;27;20046;-68
2022/09/17 06:51:22;;;;;;;1.75;1.08;;;;;;;10.60;91.31;98347.41;10647753;27;20428;-70
2022/09/17 06:56:24;;;;;;;2.63;1.40;;;;;;;10.63;90.54;98344.78;10631939;27;20500;-68
2022/09/17 07:01:27;;;;;;;1.58;1.48;;;;;;;10.68;90.60;98343.78;10630446;27;20055;-68
2022/09/17 07:06:29;;;;;;;2.50;1.48;;;;;;;10.92;90.80;98354.00;10636565;27;20497;-68
2022/09/17 07:11:32;;;;;;;2.33;1.40;;;;;;;11.00;90.22;98353.94;10631054;27;20054;-70
2022/09/17 07:16:35;;;;;;;3.58;1.42;;;;;;;10.98;90.27;98352.66;10629844;27;20028;-70
2022/09/17 07:21:37;;;;;;;1.58;1.45;;;;;;;10.93;89.91;98356.41;10629848;27;20050;-71
2022/09/17 07:26:39;;;;;;;3.47;1.65;;;;;;;10.90;89.85;98345.31;10630676;27;20043;-70
2022/09/17 07:31:42;;;;;;;1.50;1.40;;;;;;;10.88;89.26;98354.69;10629132;27;20039;-70
2022/09/17 07:36:44;;;;;;;2.17;1.50;;;;;;;10.87;89.24;98357.78;10629510;27;20051;-69
2022/09/17 07:41:46;;;;;;;2.33;1.60;;;;;;;10.91;89.25;98363.38;10639088;27;20051;-69
2022/09/17 07:46:48;;;;;;;1.45;1.35;;;;;;;10.87;89.09;98360.53;10656564;27;20058;-69
2022/09/17 07:51:51;;;;;;;5.03;1.88;;;;;;;11.05;89.10;98363.88;10653552;27;20417;-69
2022/09/17 07:56:53;;;;;;;2.22;1.58;;;;;;;11.91;89.24;98362.81;10670628;27;20508;-69
2022/09/17 08:01:55;;;;;;;1.85;1.65;;;;;;;12.52;87.60;98361.88;10653591;27;20058;-69
2022/09/17 08:06:57;;;;;;;1.77;1.42;;;;;;;12.79;85.29;98363.81;10650223;27;20050;-69
2022/09/17 08:11:59;;;;;;;4.20;1.60;;;;;;;13.04;83.05;98364.50;10656694;27;20035;-70
2022/09/17 08:17:02;;;;;;;1.58;1.20;;;;;;;13.05;81.08;98365.31;10654719;27;20050;-71
2022/09/17 08:22:04;;;;;;;1.77;1.20;;;;;;;12.96;79.95;98368.22;10654313;27;20039;-71
2022/09/17 08:27:07;;;;;;;2.60;1.55;;;;;;;12.81;79.99;98367.00;10651552;27;20038;-71
2022/09/17 08:32:10;;;;;;;2.58;0.90;;;;;;;12.74;79.72;98360.53;10636339;27;20054;-71
2022/09/17 08:37:13;;;;;;;0.98;0.95;;;;;;;12.78;79.24;98364.97;10642223;27;20035;-72
2022/09/17 08:42:48;;;;;;;0.80;0.80;;;;;;;12.79;78.13;98363.81;10651434;27;20039;-72
2022/09/17 08:47:55;;;;;;;0.88;0.60;;;;;;;12.94;77.65;98356.75;10665007;27;20046;-72
2022/09/17 08:53:37;;;;;;;1.58;0.90;;;;;;;13.20;77.38;98367.31;10647737;27;20047;-72
2022/09/17 08:58:48;;;;;;;1.20;0.88;;;;;;;13.97;75.44;98367.63;10654677;27;20031;-72
2022/09/17 09:04:02;;;;;;;0.63;0.63;;;;;;;14.44;73.55;98380.53;10622742;27;20044;-72
2022/09/17 09:09:28;;;;;;;0.70;0.70;;;;;;;14.50;72.24;98372.75;10650064;27;20055;-72
2022/09/17 09:14:35;;;;;;;1.77;0.93;;;;;;;14.28;70.85;98374.22;10646090;27;20042;-73
2022/09/17 09:19:43;;;;;;;1.60;0.98;;;;;;;14.05;71.07;98371.31;10612909;27;20155;-72
2022/09/17 09:24:51;;;;;;;1.70;0.70;;;;;;;14.11;71.49;98378.97;10651263;27;20055;-72
2022/09/17 09:30:08;;;;;;;0.85;0.47;;;;;;;14.19;71.50;98371.66;10648100;27;20524;-72
2022/09/17 09:35:16;;;;;;;1.38;0.63;;;;;;;14.05;70.87;98372.13;10669100;27;20047;-72
2022/09/17 09:40:23;;;;;;;0.95;0.60;;;;;;;14.00;70.51;98372.41;10628598;27;20047;-72
2022/09/17 09:45:46;;;;;;;1.30;0.63;;;;;;;14.08;71.31;98374.19;10645089;27;20500;-72
2022/09/17 09:50:48;;;;;;;0.22;0.22;;;;;;;14.08;70.68;98376.16;10628867;27;20047;-72
2022/09/17 09:56:10;;;;;;;0.70;0.40;;;;;;;13.96;70.94;98379.81;10654705;27;20040;-72
2022/09/17 10:01:21;;;;;;;0.63;0.43;;;;;;;13.93;70.91;98382.50;10633834;27;20047;-72
2022/09/17 10:06:24;;;;;;;0.77;0.52;;;;;;;14.02;71.17;98389.41;10653429;27;20076;-72
2022/09/17 10:11:28;;;;;;;0.52;0.52;;;;;;;14.04;71.06;98387.06;10634112;27;20412;-72
2022/09/17 10:16:34;;;;;;;0.85;0.40;;;;;;;14.08;70.49;98399.00;10631828;27;20042;-72
2022/09/17 10:21:41;;;;;;;0.50;0.50;;;;;;;14.09;70.88;98405.31;10621649;27;20059;-72
2022/09/17 10:26:43;;;;;;;;;;;;;;;14.26;71.05;98401.38;10650478;27;20039;-72
2022/09/17 10:31:54;;;;;;;0.32;0.32;;;;;;;14.30;70.59;98402.25;10653932;28;20289;-72
2022/09/17 10:36:57;;;;;;;1.25;0.50;;;;;;;14.24;70.36;98406.44;10653663;28;20051;-72
2022/09/17 10:42:13;;;;;;;0.75;0.63;;;;;;;14.14;71.32;98408.59;10635491;28;20047;-72
2022/09/17 10:47:22;;;;;;;1.10;0.70;;;;;;;13.92;73.03;98417.53;10635265;28;20035;-72
2022/09/17 10:52:24;;;;;;;0.52;0.52;;;;;;;13.78;74.82;98420.75;10635175;28;20055;-72
2022/09/17 10:58:13;;;;;;;0.82;0.77;;;;;;;13.63;76.31;98416.03;10650785;28;20046;-72
2022/09/17 11:03:43;;;;;;;2.40;1.10;;;;;;;13.44;78.02;98415.94;10624364;28;20130;-72
2022/09/17 11:09:04;;;;;;;1.45;0.77;;;;;;;13.39;78.84;98435.47;10634816;28;20035;-72
2022/09/17 11:14:25;;;;;;;1.02;0.93;;;;;;;13.36;79.85;98439.72;10653019;28;20035;-72
2022/09/17 11:19:48;;;;;;;1.95;1.00;;;;;;;13.27;80.16;98430.84;10652930;28;20385;-72
2022/09/17 11:25:08;;;;;;;1.08;0.90;;;;;;;13.15;79.40;98447.38;10658295;27;20039;-72
2022/09/17 11:30:18;;;;;;;1.88;1.20;;;;;;;13.07;79.34;98451.91;10661203;27;20050;-71
2022/09/17 11:35:26;;;;;;;2.25;1.55;;;;;;;13.13;79.92;98449.69;10641241;27;20046;-72
2022/09/17 11:40:42;;;;;;;2.67;0.90;;;;;;;13.17;79.94;98443.13;10641888;27;20043;-71
2022/09/17 11:46:08;;;;;;;1.70;0.93;;;;;;;13.15;80.06;98444.63;10639545;27;20038;-71
2022/09/17 11:51:32;;;;;;;0.77;0.73;;;;;;;13.14;79.54;98454.03;10633678;27;20054;-72
2022/09/17 11:56:42;;;;;;;2.53;0.90;;;;;;;12.99;80.34;98461.91;10658411;27;20050;-72
2022/09/17 12:02:03;;;;;;;1.00;0.70;;;;;;;12.78;81.11;98466.00;10641317;27;20039;-72
2022/09/17 12:07:30;;;;;;;1.42;0.90;;;;;;;12.62;82.77;98474.19;10641074;27;20043;-73
2022/09/17 12:12:38;;;;;;;0.93;0.80;;;;;;;12.42;83.08;98470.44;10658715;27;20057;-73
2022/09/17 12:17:45;;;;;;;1.15;0.93;;;;;;;12.28;83.53;98473.53;10658471;27;20051;-72
2022/09/17 12:22:47;;;;;;;;;;;;;;;12.24;84.43;98472.63;10640835;27;20063;-72
2022/09/17 12:27:55;;;;;;;1.45;1.10;;;;;;;12.26;85.33;98486.84;10658445;27;19992;-72
2022/09/17 12:33:12;;;;;;;1.05;0.95;;;;;;;12.27;85.61;98488.44;10656370;27;20046;-73
2022/09/17 12:38:17;;;;;;;1.88;1.30;;;;;;;12.31;85.47;98492.09;10654346;27;20042;-73
2022/09/17 12:43:41;;;;;;;2.65;1.63;;;;;;;12.33;86.16;98489.81;10657676;27;20053;-72
2022/09/17 12:49:19;;;;;;;3.63;1.85;;;;;;;12.31;86.33;98508.59;10655238;27;20424;-72
2022/09/17 12:54:43;;;;;;;3.33;1.60;;;;;;;12.25;86.81;98518.22;10579753;27;20043;-73
2022/09/17 12:59:52;;;;;;;1.80;1.45;;;;;;;12.14;86.74;98517.06;10623532;27;20032;-73
2022/09/17 13:05:09;;;;;;;3.40;1.90;;;;;;;12.13;87.11;98523.72;10593084;28;20062;-72
2022/09/17 13:10:14;;;;;;;3.53;1.92;;;;;;;12.09;87.29;98528.31;10648703;27;20078;-72
2022/09/17 13:15:36;;;;;;;4.25;1.92;;;;;;;12.11;87.63;98531.50;10649202;27;20062;-73
2022/09/17 13:20:53;;;;;;;4.32;1.92;;;;;;;12.04;87.47;98532.09;10638108;27;20032;-72
2022/09/17 13:25:55;;;;;;;3.03;2.15;;;;;;;11.95;88.84;98522.31;10656068;27;20039;-72
2022/09/17 13:31:00;;;;;;;4.10;2.10;;;;;;;11.92;89.18;98526.56;10637320;27;20047;-73
2022/09/17 13:36:03;;;;;;;6.90;2.13;;;;;;;12.00;89.80;98525.69;10655574;27;20138;-73
2022/09/17 13:41:20;;;;;;;2.50;1.42;;;;;;;12.07;89.66;98525.91;10656433;27;20034;-72
2022/09/17 13:46:24;;;;;;;2.25;1.50;;;;;;;12.14;89.19;98517.06;10620217;27;20043;-73
2022/09/17 13:51:29;;;;;;;1.55;1.42;;;;;;;12.21;90.15;98524.78;10636191;27;20066;-72
2022/09/17 13:56:37;;;;;;;2.97;1.80;;;;;;;12.17;88.93;98529.34;10655379;27;20035;-72
2022/09/17 14:02:02;;;;;;;2.58;1.33;;;;;;;12.24;88.80;98530.38;10634898;27;20081;-72
2022/09/17 14:07:22;;;;;;;2.65;1.17;;;;;;;12.22;88.02;98535.41;10654369;27;20489;-72
2022/09/17 14:12:51;;;;;;;;;;;;;;;12.27;87.43;98537.94;10650283;27;20038;-72
2022/09/17 14:17:54;;;;;;;2.83;1.50;;;;;;;12.29;87.04;98546.63;10649783;27;19935;-72
2022/09/17 14:22:57;;;;;;;1.63;1.40;;;;;;;12.33;86.90;98544.84;10651550;27;20058;-72
2022/09/17 14:28:03;;;;;;;1.85;1.63;;;;;;;12.33;86.74;98546.78;10593643;28;20040;-72
2022/09/17 14:33:25;;;;;;;1.98;1.30;;;;;;;12.34;86.51;98551.94;10629158;28;20043;-72
2022/09/17 14:38:57;;;;;;;2.95;1.63;;;;;;;12.31;86.08;98547.09;10634905;28;20350;-73
2022/09/17 14:44:01;;;;;;;3.03;1.60;;;;;;;12.25;85.28;98551.22;10622201;28;20050;-73
2022/09/17 14:49:15;;;;;;;2.78;1.65;;;;;;;12.28;84.97;98552.47;10650808;28;20056;-73
2022/09/17 14:54:27;;;;;;;3.33;1.80;;;;;;;12.32;84.56;98545.16;10635207;27;20046;-73
2022/09/17 14:59:52;;;;;;;3.00;1.55;;;;;;;12.40;84.73;98551.69;10654234;27;20416;-73
2022/09/17 15:04:54;;;;;;;3.15;1.52;;;;;;;12.40;84.72;98554.44;10641070;27;20031;-72
2022/09/17 15:10:08;;;;;;;3.35;1.80;;;;;;;12.41;85.14;98550.53;10657063;27;20046;-73
2022/09/17 15:15:19;;;;;;;3.30;1.40;;;;;;;12.37;85.00;98548.50;10624583;27;20134;-73
2022/09/17 15:20:24;;;;;;;2.92;1.50;;;;;;;12.36;85.13;98546.88;10648391;27;20048;-73
2022/09/17 15:25:28;;;;;;;4.93;1.70;;;;;;;12.32;85.45;98548.72;10620124;27;20043;-73
2022/09/17 15:30:31;;;;;;;3.67;1.58;;;;;;;12.35;85.24;98556.28;10646044;27;20036;-71
2022/09/17 15:35:33;;;;;;;2.88;1.80;;;;;;;12.35;86.24;98553.53;10617846;28;20047;-73
2022/09/17 15:40:38;;;;;;;4.82;1.90;;;;;;;12.39;85.70;98556.41;10640746;27;20039;-71
2022/09/17 15:45:41;;;;;;;3.05;1.58;;;;;;;12.33;85.96;98544.84;10657750;27;20062;-71
2022/09/17 15:50:58;;;;;;;3.15;1.60;;;;;;;12.36;86.30;98546.88;10655922;27;20049;-71
2022/09/17 15:56:15;;;;;;;3.30;1.38;;;;;;;12.33;85.99;98552.28;10635759;27;20046;-71
2022/09/17 16:01:39;;;;;;;3.72;1.67;;;;;;;12.30;86.24;98551.00;10641116;27;20046;-71
2022/09/17 16:06:48;;;;;;;2.50;1.63;;;;;;;12.32;85.97;98548.72;10658329;27;20031;-71
2022/09/17 16:11:50;;;;;;;3.90;2.03;;;;;;;12.32;86.28;98542.41;10637387;27;20046;-72
2022/09/17 16:16:55;;;;;;;7.63;2.80;;;;;;;12.24;86.06;98557.06;10657599;27;20047;-71
2022/09/17 16:21:57;;;;;;;4.80;2.63;;;;;;;12.12;87.56;98557.84;10636861;27;20042;-72
2022/09/17 16:26:59;;;;;;;6.10;2.50;;;;;;;11.96;88.36;98543.16;10654682;27;20039;-72
2022/09/17 16:32:01;;;;;;;4.72;2.40;;;;;;;11.81;89.29;98552.09;10639544;27;20043;-72
2022/09/17 16:37:03;;;;;;;3.00;2.05;;;;;;;11.73;90.27;98548.25;10658295;27;20043;-72
2022/09/17 16:42:06;;;;;;;5.13;2.75;;;;;;;11.59;90.54;98565.03;10646248;27;20602;-71
2022/09/17 16:47:08;;;;;;;3.92;2.42;;;;;;;11.61;90.72;98568.25;10678925;27;20039;-71
2022/09/17 16:52:10;;;;;;;3.88;2.10;;;;;;;11.64;90.82;98553.84;10666397;27;20075;-71
2022/09/17 16:57:12;;;;;;;2.97;2.00;;;;;;;11.60;91.74;98571.34;10651660;27;20050;-72
2022/09/17 17:02:14;;;;;;;5.47;2.03;;;;;;;11.52;91.19;98564.78;10624060;27;20504;-72
2022/09/17 17:07:17;;;;;;;4.30;2.05;;;;;;;11.48;91.42;98564.69;10652076;27;20039;-72
2022/09/17 17:12:19;;;;;;;4.28;2.53;;;;;;;11.42;91.69;98562.47;10648154;27;20386;-72
2022/09/17 17:17:21;;;;;;;3.10;1.70;;;;;;;11.39;91.75;98565.88;10636382;27;20031;-72
2022/09/17 17:22:23;;;;;;;2.92;1.70;;;;;;;11.39;91.97;98565.88;10649668;27;20046;-72
2022/09/17 17:27:25;;;;;;;3.70;1.80;;;;;;;11.37;92.02;98568.97;10650461;27;20039;-72
2022/09/17 17:32:28;;;;;;;2.63;1.73;;;;;;;11.38;92.26;98569.78;10655698;27;20038;-74
2022/09/17 17:37:30;;;;;;;2.55;1.65;;;;;;;11.36;92.51;98567.38;10654148;27;20057;-74
2022/09/17 17:42:36;;;;;;;2.03;1.40;;;;;;;11.36;93.25;98572.06;10654030;27;20035;-73
2022/09/17 17:47:39;;;;;;;5.07;2.03;;;;;;;11.37;92.86;98568.16;10648416;27;20035;-74
2022/09/17 17:52:46;;;;;;;2.17;1.40;;;;;;;11.37;93.26;98573.66;10629453;27;20043;-76
2022/09/17 17:57:54;;;;;;;2.55;1.30;;;;;;;11.35;93.55;98565.75;10653862;27;20056;-72
2022/09/17 18:02:56;;;;;;;2.33;0.93;;;;;;;11.31;93.40;98575.00;10615628;27;20051;-72
2022/09/17 18:07:58;;;;;;;2.15;1.35;;;;;;;11.30;93.49;98574.22;10631018;27;20042;-71
2022/09/17 18:13:01;;;;;;;3.55;1.15;;;;;;;11.30;93.51;98578.91;10629195;27;20043;-75
2022/09/17 18:18:03;;;;;;;2.50;1.90;;;;;;;11.29;93.95;98580.84;10631084;27;20051;-74
2022/09/17 18:23:05;;;;;;;1.52;1.00;;;;;;;11.30;93.51;98574.22;10649156;27;20053;-74
2022/09/17 18:28:08;;;;;;;1.08;1.00;;;;;;;11.22;94.00;98580.56;10652570;27;20031;-74
2022/09/17 18:33:20;;;;;;;2.08;1.20;;;;;;;11.07;93.79;98565.50;10650764;27;20043;-74
2022/09/17 18:38:23;;;;;;;2.00;1.00;;;;;;;10.98;94.09;98563.97;10648598;27;20441;-74
2022/09/17 18:43:25;;;;;;;1.27;1.02;;;;;;;10.95;94.37;98562.72;10651409;28;20035;-77
2022/09/17 18:48:28;;;;;;;3.03;1.40;;;;;;;10.96;94.22;98569.00;10651546;28;20408;-78
2022/09/17 18:53:32;;;;;;;3.35;1.17;;;;;;;10.97;94.75;98554.94;10634521;28;20054;-74
2022/09/17 18:58:35;;;;;;;1.55;1.10;;;;;;;11.02;94.26;98553.94;10634528;28;20043;-74
2022/09/17 19:03:37;;;;;;;1.70;1.27;;;;;;;11.01;95.05;98550.38;10651795;28;20051;-77
2022/09/17 19:08:40;;;;;;;2.10;1.15;;;;;;;10.95;94.62;98546.25;10633849;28;20436;-75
2022/09/17 19:13:45;;;;;;;1.40;1.10;;;;;;;10.91;95.61;98548.03;10645168;28;20031;-76
2022/09/17 19:18:47;;;;;;;1.35;1.05;;;;;;;10.95;95.26;98539.94;10647469;28;20051;-80
2022/09/17 19:23:51;;;;;;;1.48;1.30;;;;;;;10.81;96.03;98551.19;10651253;27;20047;-79
2022/09/17 19:28:56;;;;;;;2.05;1.40;;;;;;;10.67;96.06;98547.88;10644622;27;20579;-77
2022/09/17 19:33:58;;;;;;;1.98;1.42;;;;;;;10.56;95.94;98542.78;10615428;28;20061;-73
2022/09/17 19:39:01;;;;;;;1.88;1.13;;;;;;;10.56;96.05;98545.50;10647051;27;20047;-73
2022/09/17 19:44:03;;;;;;;2.10;1.20;;;;;;;10.53;96.40;98543.44;10654253;27;20058;-74
2022/09/17 19:49:07;;;;;;;1.95;1.27;;;;;;;10.57;97.00;98540.84;10659853;27;20046;-78
2022/09/17 19:54:10;;;;;;;2.42;1.10;;;;;;;10.63;96.80;98534.03;10657957;27;20035;-75
2022/09/17 19:59:12;;;;;;;1.02;0.82;;;;;;;10.65;97.28;98545.47;10652828;27;20506;-86
2022/09/17 20:04:15;;;;;;;1.27;1.00;;;;;;;10.71;96.91;98554.31;10652875;27;20398;-76
2022/09/17 20:09:17;;;;;;;1.88;1.10;;;;;;;10.74;97.19;98557.19;10655246;27;20054;-74
2022/09/17 20:14:19;;;;;;;2.20;0.95;;;;;;;10.75;97.44;98558.78;10638699;27;20035;-76
2022/09/17 20:19:21;;;;;;;1.10;1.00;;;;;;;10.77;96.75;98558.47;10621628;27;20054;-80
2022/09/17 20:24:24;;;;;;;3.00;1.50;;;;;;;10.83;96.50;98560.69;10654431;27;20070;-75
2022/09/17 20:29:26;;;;;;;1.30;1.10;;;;;;;10.88;96.79;98563.22;10652657;27;20081;-76
2022/09/17 20:34:28;;;;;;;3.50;1.92;;;;;;;10.83;96.24;98576.34;10655775;27;20034;-76
2022/09/17 20:39:30;;;;;;;1.52;1.20;;;;;;;10.83;96.47;98571.66;10653938;27;20074;-75
2022/09/17 20:44:33;;;;;;;3.10;1.52;;;;;;;10.82;96.97;98583.75;10652410;27;20035;-75
2022/09/17 20:49:35;;;;;;;2.20;1.40;;;;;;;10.82;96.55;98586.50;10634764;27;20520;-75
2022/09/17 20:54:37;;;;;;;2.15;1.50;;;;;;;10.83;97.02;98581.81;10651018;27;20579;-74
2022/09/17 20:59:52;;;;;;;5.47;2.65;;;;;;;10.87;96.86;98593.75;10652778;27;20040;-78
2022/09/17 21:04:54;;;;;;;3.03;1.30;;;;;;;10.80;96.80;98587.97;10636474;27;20054;-75
2022/09/17 21:09:56;;;;;;;2.53;1.55;;;;;;;10.76;96.98;98593.34;10648788;27;20047;-78
2022/09/17 21:14:59;;;;;;;3.22;1.80;;;;;;;10.73;96.94;98595.91;10601531;27;20031;-77
2022/09/17 21:20:01;;;;;;;3.80;1.50;;;;;;;10.74;97.39;98600.28;10654286;27;20042;-76
2022/09/17 21:25:04;;;;;;;1.98;1.27;;;;;;;10.72;97.42;98602.53;10616779;27;20047;-75
2022/09/17 21:30:08;;;;;;;3.05;1.80;;;;;;;10.70;97.74;98605.63;10649232;27;20068;-77
2022/09/17 21:35:10;;;;;;;3.80;2.10;;;;;;;10.66;98.21;98598.41;10597186;27;20817;-75
2022/09/17 21:40:13;;;;;;;4.03;1.67;;;;;;;10.61;97.79;98602.13;10652469;27;20040;-76
2022/09/17 21:45:15;;;;;;;3.22;1.80;;;;;;;10.63;97.61;98593.56;10649141;27;20035;-75
2022/09/17 21:50:17;;;;;;;3.97;1.85;;;;;;;10.60;97.92;98603.28;10632741;27;20050;-74
2022/09/17 21:55:19;;;;;;;1.60;1.42;;;;;;;10.57;97.95;98606.66;10651424;27;20070;-75
2022/09/17 22:00:22;;;;;;;3.38;1.60;;;;;;;10.59;97.98;98607.16;10652372;27;20413;-73
2022/09/17 22:05:25;;;;;;;3.17;1.30;;;;;;;10.62;98.30;98611.16;10652876;27;20061;-72
2022/09/17 22:10:27;;;;;;;2.40;1.48;;;;;;;10.72;98.46;98614.31;10645668;27;20046;-73
2022/09/17 22:15:29;;;;;;;1.83;1.27;;;;;;;10.77;98.20;98614.16;10637899;27;20117;-74
2022/09/17 22:20:31;;;;;;;1.63;1.10;;;;;;;10.79;98.52;98619.31;10636603;27;20054;-74
2022/09/17 22:25:34;;;;;;;2.35;1.40;;;;;;;10.79;98.68;98625.59;10658819;27;20042;-72
2022/09/17 22:30:36;;;;;;;3.05;1.23;;;;;;;10.83;99.02;98625.72;10643457;27;20039;-72
2022/09/17 22:35:38;;;;;;;1.30;1.17;;;;;;;10.80;98.71;98638.16;10650602;27;20048;-73
2022/09/17 22:40:41;;;;;;;2.17;1.02;;;;;;;10.72;98.44;98643.69;10652270;28;20039;-73
2022/09/17 22:45:43;;;;;;;1.85;1.13;;;;;;;10.72;98.68;98646.44;10653866;28;20084;-73
2022/09/17 22:50:54;;;;;;;1.20;0.85;;;;;;;10.77;98.46;98649.81;10652838;28;20626;-73
2022/09/17 22:55:57;;;;;;;1.85;0.90;;;;;;;10.83;98.87;98642.19;10636410;27;20050;-74
2022/09/17 23:01:05;;;;;;;1.42;0.93;;;;;;;10.87;98.13;98651.34;10634727;28;20136;-75
2022/09/17 23:06:10;;;;;;;1.98;1.15;;;;;;;10.93;98.34;98658.25;10614679;28;20039;-74
2022/09/17 23:11:24;;;;;;;2.58;1.10;;;;;;;10.96;98.25;98665.84;10635353;27;20489;-75
2022/09/17 23:16:27;;;;;;;3.33;1.50;;;;;;;10.99;98.13;98659.69;10655031;27;20046;-74
2022/09/17 23:21:30;;;;;;;2.30;1.23;;;;;;;10.99;98.11;98656.16;10658312;27;20035;-75
2022/09/17 23:26:36;;;;;;;2.20;1.40;;;;;;;10.97;98.22;98659.22;10642932;27;20038;-74
2022/09/17 23:31:38;;;;;;;3.25;1.67;;;;;;;11.00;98.17;98657.75;10660063;27;20049;-74
2022/09/17 23:36:40;;;;;;;2.42;1.65;;;;;;;11.04;98.03;98675.94;10660248;27;20042;-75
2022/09/17 23:41:44;;;;;;;2.42;1.75;;;;;;;11.02;98.16;98677.44;10654135;27;20031;-74
2022/09/17 23:46:47;;;;;;;2.30;1.52;;;;;;;11.03;98.42;98682.59;10659281;27;20067;-75
2022/09/17 23:51:54;;;;;;;2.60;1.70;;;;;;;11.06;97.88;98690.16;10638378;27;20073;-76